W29 weather

Bay Bridge Airport
Stevensville, Maryland, United States

Public forecast

Using degrees Fahrenheit for public forecast. Weather courtesy of forecast.io.

Closest aviation weather report (METAR) to Bay Bridge Airport

Closest report is Easton Newnam Field, 16.0 nm (29.6 km) SE. Retrieved 2019/10/20 07:39 UTC (9 minutes ago):

KESN 200739Z AUTO 11005KT 10SM CLR 12/08 A3001 RMK AO2 T01180080

Closest aviation forecast (TAF) to Bay Bridge Airport

Closest forecast is Baltimore/Washington International Thurgood Marshall Airport, 19.8 nm (36.7 km) NW. Retrieved 2019/10/20 06:46 UTC (1 hour ago):

TAF KBWI 200544Z 2006/2112 VRB03KT 6SM -RA BR SCT025 OVC045 FM201500 04008KT 2SM -RA BR BKN010 OVC020 FM202100 03010G22KT 2SM BR BKN008 OVC020 FM210200 36007KT 6SM BR BKN008 BKN020 FM210600 35005KT P6SM BKN010 BKN025 FM210900 35006KT P6SM SCT025 BKN040